Christos Charalambous

Chief Scout - APOEL
3 Dec 2028
Sunday
Process

Personality

Adaptability (13) Ambition (16) Controversy (19) Loyalty (17) Pressure (20) Professionalism (1) Sportsmanship (3) Temperament (5)

Profile

Coaching Style Democratic
License Continental Pro
Determination 5
Man Management 10
Motivating 11
Discipline 6
Job Satisfaction
83%
Fatigue
0%
Role Chief Scout
Wage 38.2K p/w
Contract 14.03.2029

Performance

Behaviour Good
Training Effectiveness
37%
Player Development
45%
Injury Prevention
20%
Tactical Implementation
60%

Recent Events

Attended a recruitment meeting now
Assessed a player now
Assessed a player 7d ago
Attended a recruitment meeting 7d ago
Assessed a player 7d ago
Assessed a player 7d ago
Assessed a player 7d ago
Assessed a player 7d ago

Currently Monitoring

354
Player Club Status Ability Confidence Watched Last Observed Latest Vote
Ramiro Ruiz Rodríguez Atlético Tucumán Active 124 / 128 40% 6 01.12.2028 -
Rodrigo Bogarín Barracas Central Active 116 / 121 40% 9 01.12.2028 -
Antony Alonso Deportivo Riestra Active 119 / 119 40% 4 01.12.2028 -
Mauro Valiente Estudiantes Active 123 / 113 40% 7 30.11.2028 -
Fabrizio Sartori Independiente Rivadavia Active 114 / 126 40% 5 30.11.2028 -
Theo Corbeanu Toronto FC Active 120 / 129 40% 6 30.11.2028 -
Daniel Barrea Godoy Cruz Active 120 / 124 40% 9 28.11.2028 -
Jonás Acevedo Instituto Active 123 / 113 40% 7 28.11.2028 -
Facundo Farías Estudiantes Active 119 / 134 40% 5 28.11.2028 -
Ignacio Ramírez Newell's Old Boys Active 115 / 129 40% 12 24.11.2028 -
Clemente Montes Santiago Wanderers Active 132 / 128 40% 4 24.11.2028 -
Jefry Zapata Aldosivi Active 121 / 114 40% 6 23.11.2028 -
Alexander Díaz Deportivo Riestra Active 118 / 129 40% 12 23.11.2028 -
Blas Armoa Gimnasia y Esgrima Active 122 / 128 40% 4 23.11.2028 -
Erick Dolly Black Aces Active 129 / 134 40% 5 22.11.2028 -
Francisco Valencia Junior Active 122 / 123 40% 5 22.11.2028 -
Agustín Colazo Unión de Santa Fe Active 121 / 129 40% 4 21.11.2028 -
Edwuin Cetré Estudiantes Active 131 / 117 40% 4 21.11.2028 -
Asier Villalibre Racing Santander Active 133 / 135 40% 1 21.11.2028 -
Ignacio Russo Tigre Active 129 / 126 40% 11 20.11.2028 -
Adalberto Peñaranda Deportivo Tachira Active 118 / 119 40% 10 16.11.2028 -
Fabri Vitória Active 130 / 116 40% 5 16.11.2028 -
Tomás Verón Lupi Grasshopper Active 127 / 130 40% 1 15.11.2028 -
Davis Keillor-Dunn Bolton Wanderers Active 122 / 121 40% 1 13.11.2028 -
Rodrigo Auzmendi Banfield Active 135 / 128 40% 4 08.11.2028 -
Nahuel Ulariaga Najran Active 141 / 123 40% 3 08.11.2028 -
Jacob Brown Barrow AFC Active 129 / 128 40% 1 08.11.2028 -
Bruno Barticciotto Talleres Active 139 / 124 40% 9 07.11.2028 -
Juan Miritello Defensa y Justicia Active 111 / 114 40% 3 06.11.2028 -
Gonzalo Plata Nacional Active 151 / 143 40% 2 31.10.2028 -
Uriel Antuna Dinamo Moscow Active 143 / 138 40% 2 31.10.2028 -
Santiago Rodríguez Gimnasia y Esgrima Active 113 / 111 40% 9 30.10.2028 -
Mohammad Mohebi Hajduk Split Active 127 / 131 40% 1 30.10.2028 -
Tobías Cervera Gimnasia y Esgrima Active 111 / 114 40% 4 29.10.2028 -
Tomás Chancalay New England Revolution Active 135 / 128 40% 3 29.10.2028 -
Adolfo Gaich Estudiantes Active 110 / 121 40% 6 26.10.2028 -
Adam Idah Swansea City Active 138 / 128 40% 1 26.10.2028 -
Yair González Argentinos Juniors Active 122 / 114 40% 1 15.10.2028 -
Yota Komi Kashiwa Reysol Active 112 / 124 40% 6 11.10.2028 -
Mateo Bajamich Atlético Tucumán Active 131 / 127 40% 6 10.10.2028 -
Mateo Coronel Atlético Tucumán Active 128 / 117 40% 2 04.10.2028 -
Lucas Ríos Koper Active 109 / 114 40% 1 01.10.2028 -
Alexis Cuello San Lorenzo Active 118 / 133 40% 8 23.09.2028 -
Marcelo Torres Gimnasia La Plata Active 111 / 125 40% 2 08.09.2028 -
Yoshan Valois Lanús Active 110 / 117 40% 1 30.08.2028 -
Moses Cobnan Krasnodar Active 126 / 125 40% 2 26.08.2028 -
Nicolás Cordero Aldosivi Active 131 / 116 40% 1 25.08.2028 -
Dimitris Theodorou Anorthosis Rejected 98 / 106 69% 1 21.08.2028 Reject
Rody Junior Effaghe Aris Active 120 / 118 40% 1 21.08.2028 -
Emanuele Schimmenti Potenza Active 118 / 117 40% 3 20.08.2028 -
Nicola Rauti Vicenza Active 125 / 122 40% 5 20.08.2028 -
Juan Cejas Ethnikos Achnas Active 118 / 115 40% 1 20.08.2028 -
Vanja Vlahović Spezia Active 138 / 128 40% 1 19.08.2028 -
Giuseppe Di Serio Spezia Active 124 / 125 40% 2 18.08.2028 -
Konan N'Dri Lecce Active 140 / 140 40% 1 18.08.2028 -
Kevin Martins Monza Active 126 / 122 40% 1 18.08.2028 -
Luca Vido Union Brescia Active 122 / 120 40% 5 16.08.2028 -
Andrea Ferraris Pescara Active 124 / 126 40% 1 16.08.2028 -
Agustín Medina Lanús Active 126 / 123 40% 2 15.08.2028 -
Tobías Ramírez River Plate Active 128 / 128 40% 3 15.08.2028 -
Jérémy Le Douaron Palermo Active 127 / 127 40% 7 15.08.2028 -
Enzo Cabrera AE Kition Active 122 / 126 40% 3 14.08.2028 -
Nicolás Andereggen Ethnikos Achnas Active 124 / 123 40% 3 13.08.2028 -
Emanuele Pecorino Catanzaro Active 125 / 120 40% 1 13.08.2028 -
Ole Romeny Oxford United Active 121 / 119 40% 7 08.08.2028 -
Facundo Lescano Salernitana Active 126 / 117 40% 1 08.08.2028 -
Camillo Tavernelli Arezzo Active 124 / 118 40% 15 07.08.2028 -
Stephen Humphrys Bradford City Active 117 / 112 40% 7 07.08.2028 -
Christian Saydee Wigan Athletic Active 122 / 117 40% 13 06.08.2028 -
Sam Nombe Milton Keynes Dons Active 116 / 116 40% 9 06.08.2028 -
Liam Cullen Swansea City Active 122 / 121 40% 6 06.08.2028 -
Martim Cunha Porto Active 116 / 123 40% 4 05.08.2028 -
Aaron Collins Milton Keynes Dons Active 127 / 120 40% 11 05.08.2028 -
Jan Cedilnik Chikhura Active 80 / 86 40% 3 05.08.2028 -
Kyle Wootton Stockport County Active 127 / 130 40% 11 05.08.2028 -
Sam Smith Wrexham Active 123 / 124 40% 4 05.08.2028 -
Tomás Valentukonis Najran Active 90 / 105 40% 1 05.08.2028 -
Evidence Makgopa Orlando Pirates Active 125 / 127 40% 4 03.08.2028 -
Gabriele Gori Ascoli Active 122 / 114 40% 7 02.08.2028 -
Marco Tumminello Benevento Active 121 / 120 40% 8 02.08.2028 -
Edoardo Soleri Bari Active 132 / 120 40% 3 31.07.2028 -
Jalen Blesa Oliveirense Active 133 / 124 40% 5 31.07.2028 -
Sam Dalby Bolton Wanderers Active 114 / 120 40% 1 31.07.2028 -
Kevin Piscopo Juve Stabia Active 125 / 119 40% 1 30.07.2028 -
Arthur Sales Maritzburg United Active 121 / 127 40% 5 29.07.2028 -
Rayan Kolli Queens Park Rangers Active 116 / 121 40% 5 28.07.2028 -
Francisco Arias Gimnasia y Esgrima Active 80 / 97 40% 1 27.07.2028 -
Giacomo Sandrolini Carpi Active 89 / 101 40% 1 27.07.2028 -
Mateo Faure BATE Active 84 / 102 40% 1 27.07.2028 -
Mehdi Noorafkan Padideh Active 103 / 104 40% 2 26.07.2028 -
Stavros Psyropoulos Kasimpasa Active 86 / 93 40% 1 26.07.2028 -
Kwesi Sorotu Badori Berekum Chelsea Active 93 / 115 40% 2 24.07.2028 -
Pedro Marques Apollon Active 125 / 115 40% 3 22.07.2028 -
Norman Bassette Coventry City Active 117 / 127 40% 3 21.07.2028 -
Alejandro Cantero Jomo Cosmos Active 122 / 124 40% 2 18.07.2028 -
Matteo Rover Reggiana Active 123 / 128 40% 7 17.07.2028 -
Alfie Cresswell Leeds United Active 99 / 113 40% 1 17.07.2028 -
Jan Bürger Northampton Town Active 123 / 125 40% 3 12.07.2028 -
Noah Markmann Esbjerg Active 115 / 132 40% 1 12.07.2028 -
Edgar López Toluca Active 131 / 124 40% 2 11.07.2028 -
Etiosa Ighodaro Kaizer Chiefs Active 122 / 122 40% 4 09.07.2028 -
Gustavo Santos Krasnodar Active 115 / 132 40% 8 08.07.2028 -
Declan Frith Peterborough United Active 114 / 119 40% 1 08.07.2028 -
Ethan Erhahon Cheltenham Town Active 119 / 120 40% 1 08.07.2028 -
Jack Taylor Doncaster Rovers Active 140 / 137 40% 2 04.07.2028 -
Kane Wilson Milton Keynes Dons Active 121 / 122 40% 1 04.07.2028 -
Pol Valentín Cambridge United Active 125 / 119 40% 1 04.07.2028 -
Luther Singh AEL Active 146 / 130 40% 3 02.07.2028 -
Rúben Rodrigues Bolton Wanderers Active 121 / 126 40% 2 02.07.2028 -
Yan Valery Sheffield Wednesday Active 132 / 123 40% 1 02.07.2028 -
Luke Molyneux Doncaster Rovers Active 116 / 123 40% 3 01.07.2028 -
Tom Davies Barnet Active 134 / 135 40% 2 01.07.2028 -
Ben Wiles Milton Keynes Dons Active 125 / 120 40% 1 30.06.2028 -
Ryan McAidoo Oldham Athletic Active 130 / 125 40% 1 30.06.2028 -
Simone Mazzocchi Cosenza Active 128 / 119 40% 3 28.06.2028 -
Siyabonga Mabena Bidvest Wits Active 128 / 135 40% 2 28.06.2028 -
Jorge Cabezas Hurtado Watford Active 126 / 121 40% 5 24.06.2028 -
Mohamadou Kanté Crawley Town Active 125 / 121 40% 2 19.06.2028 -
Thierry Gale Swindon Town Active 118 / 126 40% 1 19.06.2028 -
Timur Suleimanov Nizhniy Novgorod Active 120 / 116 40% 7 17.06.2028 -
Miro Arsenal Tula Active 110 / 120 40% 7 11.06.2028 -
Leandro Antunes Al-Riyadh Active 132 / 126 40% 14 07.06.2028 -
Joel Asoro Apollon Active 122 / 129 40% 7 05.06.2028 -
Josh Nichols Oldham Athletic Active 124 / 125 40% 6 04.06.2028 -
Luca Moro Padova Rejected 122 / 122 40% 4 04.06.2028 -
Gennaro Tutino Sampdoria Active 123 / 128 40% 2 04.06.2028 -
Ahmed Zaki Masr El Makasa Active 87 / 93 40% 1 04.06.2028 -
Charlie Kelman Barnsley Active 123 / 119 40% 5 03.06.2028 -
Giuseppe Panico Foggia Active 116 / 119 40% 5 03.06.2028 -
Walid Cheddira Avellino Active 128 / 130 40% 2 01.06.2028 -
Ettore Gliozzi Mantova Active 127 / 124 40% 2 29.05.2028 -
Ryan Kavuma-McQueen Accrington Stanley Active 114 / 128 40% 4 28.05.2028 -
Johnny Kenny Preston Active 122 / 118 40% 4 27.05.2028 -
Simone Suppa Virtus Verona Active 85 / 91 40% 2 26.05.2028 -
Carlton Morris Derby County Active 119 / 120 40% 2 26.05.2028 -
Augusto Bando Ascoli Active 103 / 114 40% 2 26.05.2028 -
Federico Matarán Giana Erminio Active 105 / 107 40% 4 25.05.2028 -
Musa Danjuma Umraniyespor Active 100 / 108 40% 2 23.05.2028 -
Olivier Leroux Mouscron Active 102 / 112 40% 5 22.05.2028 -
Sam Szmodics Ipswich Town Rejected 129 / 131 40% 8 18.05.2028 -
Daniel Banjaqui Benfica Rejected 118 / 123 40% 4 17.05.2028 Reject
Andrey Ivlev Nizhniy Novgorod Active 106 / 118 40% 3 17.05.2028 -
Dale Taylor Blackpool Active 118 / 116 40% 4 14.05.2028 -
Kiani Inge Groningen Active 106 / 124 40% 5 13.05.2028 -
Luca Williams-Barnett Walsall Active 123 / 129 40% 7 06.05.2028 -
Celías Ingenthron Platense Rejected 127 / 118 40% 2 05.05.2028 -
Vyacheslav Grulev Nizhniy Novgorod Active 127 / 108 40% 7 05.05.2028 -
Elijah Adebayo Luton Town Active 130 / 126 40% 2 29.04.2028 -
Kleis Bozhanaj Modena Active 126 / 123 40% 1 25.04.2028 -
Jajá Pafos Active 126 / 115 40% 3 18.04.2028 -
Ali Youssef Apollon Active 133 / 122 40% 8 08.04.2028 -
Josh Stokes Bristol City Active 121 / 118 40% 1 07.04.2028 -
Riquelme Thompson-Jones Accrington Stanley Active 106 / 117 40% 2 05.04.2028 -
Lucas Nicol Mjondalen Active 70 / 86 40% 1 26.03.2028 -
Milad Nekounam Gostaresh Foulad Active 90 / 85 40% 2 25.03.2028 -
Othniël Raterink Cagliari Active 122 / 128 40% 1 25.03.2028 -
Nicolò Moranduzzo Renate Active 86 / 96 40% 1 24.03.2028 -
Jon Esenga IF Elfsborg Active 108 / 101 40% 1 24.03.2028 -
Makar Vysochenko Spartak Moscow Active 98 / 96 40% 1 24.03.2028 -
Ollie Watkins Al-Hilal Active 151 / 145 40% 3 18.03.2028 -
Nikolay Komlichenko Lokomotiv Moscow Active 119 / 126 40% 3 16.03.2028 -
Victor Hernandez Santa Fe Active 110 / 124 40% 6 15.03.2028 -
Amine Boukamir Charleroi Active 102 / 104 40% 1 15.03.2028 -
Bence Szakos Aris Active 94 / 102 40% 1 14.03.2028 -
Matvey Bardachev Zenit Active 97 / 118 40% 1 13.03.2028 -
Bernardo Lima Porto Active 103 / 113 40% 3 10.03.2028 -
Yakou Meïté Damac Active 115 / 114 40% 1 09.03.2028 -
Haitham Asiri Hajer Active 116 / 113 40% 1 09.03.2028 -
Mees Rijks Bristol Rovers Active 121 / 114 40% 4 25.02.2028 -
Callum Lang Preston Active 117 / 126 40% 1 25.02.2028 -
Shota Shekiladze Dila Active 119 / 112 40% 4 18.02.2028 -
Mikhail Ignatov Sochi Active 119 / 118 40% 2 15.02.2028 -
Khama Mabunda Platinum Stars Active 75 / 92 40% 1 10.02.2028 -
Tobiáš Pališčák Zlin Active 101 / 102 40% 1 10.02.2028 -
Chinedu Geoffrey Krylya Sovetov Active 112 / 125 40% 3 08.02.2028 -
Elton Acolatse Pafos Active 129 / 113 40% 1 02.02.2028 -
Zane Albarus Shrewsbury Town Active 93 / 110 40% 2 01.02.2028 -
Colin Guske Orlando City Active 89 / 105 40% 3 31.01.2028 -
Matias Siltanen Malmo FF Active 133 / 121 40% 3 31.01.2028 -
Artem Nosachev Spartak Moscow Active 75 / 78 40% 1 31.01.2028 -
Tomás Fernández Aldosivi Active 118 / 110 40% 2 29.01.2028 -
Nazareno Funez Defensa y Justicia Active 125 / 118 40% 1 29.01.2028 -
Jhonatan Candia Barracas Central Active 115 / 118 40% 5 26.01.2028 -
Oscar Steinke Brånby Hammarby Active 101 / 115 40% 1 26.01.2028 -
Tyler Fletcher Rotherham United Active 108 / 122 40% 1 25.01.2028 -
Diego Vargas Universidad de Concepcion Active 96 / 100 40% 1 21.01.2028 -
José Barreto Quilmes Active 115 / 121 40% 4 17.01.2028 -
Brayan Gil Baltika Active 123 / 127 40% 6 16.01.2028 -
Enzo Copetti Rosario Central Active 120 / 127 40% 2 07.01.2028 -
Rodrigo González Mitre Active 124 / 118 40% 6 13.12.2027 -
Juan Sebastián Herrera Deportivo La Guaira Active 123 / 120 40% 4 12.12.2027 -
Alex Luna Instituto Active 127 / 131 40% 1 12.12.2027 -
Alejo Dramisino Atlanta Active 123 / 119 40% 7 07.12.2027 -
Santiago González Tigre Active 120 / 123 40% 3 06.12.2027 -
Guido Mainero Platense Active 120 / 115 40% 1 02.12.2027 -
Imran Oulad Omar Dinamo Batumi Active 117 / 127 40% 9 30.11.2027 -
Nicolás Retamar Ferro Carril Oeste Active 109 / 117 40% 7 30.11.2027 -
Manuel Mónaco Sarmiento Active 116 / 120 40% 5 29.11.2027 -
Gastón Togni Defensa y Justicia Active 125 / 125 40% 2 28.11.2027 -
Emanuel Coronel Rosario Central Active 135 / 117 40% 1 27.11.2027 -
Brian Farioli Estudiantes Active 118 / 114 40% 6 26.11.2027 -
Jaminton Campaz Rosario Central Active 129 / 130 40% 1 26.11.2027 -
Oscar Garrido Mitre Active 126 / 117 40% 3 25.11.2027 -
Bruno Leyes Godoy Cruz Active 121 / 120 40% 6 24.11.2027 -
Jeremías Merlo Gimnasia La Plata Active 120 / 122 40% 1 22.11.2027 -
Matías Rosales Sarmiento Active 106 / 120 40% 2 20.11.2027 -
Joaquín Gho Argentinos Juniors Active 138 / 117 40% 4 20.11.2027 -
Nicolás Laméndola Atlético Tucumán Active 126 / 116 40% 1 20.11.2027 -
Iñaki Larthirigoyen San Telmo Active 123 / 117 40% 7 18.11.2027 -
Enzo Hoyos Ferro Carril Oeste Active 123 / 122 40% 2 18.11.2027 -
Tiago Palacios Estudiantes Active 133 / 138 40% 2 18.11.2027 -
Giorgi Arabidze Torpedo Kutaisi Active 127 / 120 40% 3 14.11.2027 -
Sebastián Medina Tigre Active 118 / 120 40% 1 09.11.2027 -
Santiago Rosales Mitre Active 127 / 113 40% 2 08.11.2027 -
Marcelino Moreno Lanús Active 126 / 121 40% 2 08.11.2027 -
Manuel Duarte Barracas Central Active 128 / 117 40% 2 06.11.2027 -
Damián Adín San Miguel Active 126 / 112 40% 1 06.11.2027 -
Franco Vedoya Central Norte Active 105 / 114 40% 4 01.11.2027 -
Franco Díaz Temperley Active 122 / 124 40% 2 24.10.2027 -
Delfor Minervino Estudiantes Active 116 / 113 40% 1 22.10.2027 -
Martín Campos Ferro Carril Oeste Active 113 / 109 40% 1 18.10.2027 -
Lautaro Disanto Defensores Unidos Active 121 / 110 40% 3 15.10.2027 -
Sebastián Jaurena San Martín SJ Active 109 / 111 40% 3 14.10.2027 -
Gastón Moreyra Almirante Brown Active 111 / 120 40% 2 13.10.2027 -
Gianluca Pugliese Güemes Active 105 / 110 40% 3 04.10.2027 -
Fernando Bersano Madryn Active 110 / 121 40% 1 04.10.2027 -
Horacio Tijanovich Central Córdoba SdE Active 105 / 111 40% 1 02.10.2027 -
Mohamed Moussa Koïta Mathare United Active 109 / 101 40% 1 23.09.2027 -
Patricio Moyano Defensores Active 107 / 110 40% 1 17.09.2027 -
Santiago Sala Güemes Active 105 / 110 40% 1 16.09.2027 -
Facundo Nadalín San Martín SJ Active 114 / 109 40% 1 16.09.2027 -
Leandro Allende Colón Active 103 / 122 40% 1 14.09.2027 -
Matías Canedo Rampla Juniors Active 97 / 90 40% 2 12.09.2027 -
Jonathan Cañete Portuguesa Active 122 / 114 40% 1 12.09.2027 -
Onuorah Onyedika Kun Khalifat Active 88 / 81 40% 1 12.09.2027 -
Chibueze Oputa Rangers International Active 78 / 91 40% 3 09.09.2027 -
Jonny Shore New York City Active 93 / 113 40% 1 09.09.2027 -
Yury Oyarzo Racing Active 92 / 97 40% 1 06.09.2027 -
Dato Chakvetadze Zugdidi Active 90 / 87 40% 1 04.09.2027 -
Francisco Machis Llaneros Active 73 / 85 40% 2 01.09.2027 -
Nazareno Roselli Defensa y Justicia Active 114 / 111 40% 1 01.09.2027 -
Issa Yusuf Shooting Stars Active 89 / 83 40% 2 30.08.2027 -
Gideon Manaseh Ikorodu City Active 91 / 102 40% 1 29.08.2027 -
Onyeuche Ujunwa Ikorodu City Active 78 / 88 40% 1 26.08.2027 -
David Damboama El-Kanemi Warriors Active 100 / 84 40% 1 26.08.2027 -
Bruno Almeida AEL Active 121 / 115 40% 4 24.08.2027 -
Lucan Louw US Bougouni Active 89 / 90 40% 1 13.08.2027 -
Adam Boufandar Pro Vercelli Active 91 / 98 40% 1 12.08.2027 -
Idris El Mizouni Leyton Orient Active 117 / 124 40% 1 08.08.2027 -
Ilias Bronkhorst Huddersfield Town Active 116 / 121 40% 1 06.08.2027 -
Joseph Hungbo Wigan Athletic Active 118 / 119 40% 1 06.08.2027 -
Ar'jany Martha Rotherham United Active 109 / 112 40% 1 05.08.2027 -
Sondre Tronstad Blackburn Rovers Active 118 / 125 40% 3 03.08.2027 -
Perry Ng Cardiff City Active 115 / 120 40% 1 03.08.2027 -
Leandro Martins Benfica Active 95 / 107 40% 1 03.08.2027 -
Maldini Kacurri Grimsby Town Active 88 / 99 40% 1 03.08.2027 -
Che Adams Torino Active 151 / 137 40% 1 30.07.2027 -
Stiven Shpendi Empoli Active 131 / 120 40% 1 30.07.2027 -
Leighton Clarkson Blackpool Active 114 / 127 40% 1 29.07.2027 -
Tommaso Cecotti Carpi Active 96 / 95 40% 1 29.07.2027 -
Andre Dozzell Bradford City Active 119 / 118 40% 1 24.07.2027 -
Tyreece Campbell Charlton Athletic Active 119 / 118 40% 1 23.07.2027 -
Dylan Levitt Leyton Orient Active 117 / 121 40% 1 21.07.2027 -
Josh Murphy Portsmouth Active 122 / 130 40% 1 20.07.2027 -
Ethan Williams Peterborough United Active 119 / 126 40% 1 19.07.2027 -
Matthew Garbett Peterborough United Active 116 / 117 40% 2 18.07.2027 -
Jack Diamond Stockport County Active 115 / 124 40% 1 16.07.2027 -
Aaron Morley Wycombe Wanderers Active 115 / 117 40% 1 15.07.2027 -
Lucas Mbamba Westerlo Active 91 / 96 40% 1 10.07.2027 -
Aldo Florenzi Cosenza Active 127 / 116 40% 1 06.07.2027 -
Sam Lammers PSV Active 126 / 123 40% 1 01.06.2027 -
Egas Cacintura Akhmat Grozny Active 134 / 119 40% 4 29.05.2027 -
Konstantinos Balogiannis Apollon Active 114 / 115 40% 1 29.05.2027 -
César Montes Lokomotiv Moscow Active 124 / 140 40% 1 28.05.2027 -
Tormena Krasnodar Active 128 / 135 40% 1 23.05.2027 -
Wilfried Kanga Al-Fateh Active 108 / 117 40% 3 17.05.2027 -
Gédéon Kalulu Aris Active 115 / 123 40% 1 13.05.2027 -
Rémi Oudin AEL Active 108 / 115 40% 1 13.05.2027 -
Ivan Sergeev Dinamo Moscow Active 115 / 127 40% 3 10.05.2027 -
Sérgio Conceição AEL Active 107 / 114 40% 1 09.05.2027 -
Florin Tănase Omonoia Active 125 / 120 40% 2 05.05.2027 -
Jacques Siwe Rubin Active 127 / 115 40% 5 03.05.2027 -
Nathan Gassama Baltika Active 130 / 124 40% 1 28.04.2027 -
Valentin Costache Noah Active 117 / 111 40% 1 25.04.2027 -
Tio Cipot NK Maribor Active 134 / 113 40% 3 22.04.2027 -
Jack Hendry Al-Ettifaq Active 117 / 129 40% 2 22.04.2027 -
Maksim Samorodov Akhmat Grozny Active 130 / 124 40% 3 19.04.2027 -
Peter Olayinka Al-Wehda Active 119 / 120 40% 6 16.04.2027 -
Darwin González Al-Wehda Active 101 / 113 40% 5 14.04.2027 -
Thom van Bergen Groningen Active 122 / 125 40% 1 10.04.2027 -
Carlos Vinícius Grêmio Active 152 / 125 40% 1 06.04.2027 -
Arthur Gomes Dinamo Moscow Active 133 / 132 40% 4 30.03.2027 -
Marat Bokoev Akron Active 128 / 121 40% 1 30.03.2027 -
Loreintz Rosier Al-Hazem Active 134 / 123 40% 1 30.03.2027 -
Tin Jedvaj Al-Shabab Active 108 / 121 40% 1 28.03.2027 -
Leo Goglichidze Rodina Active 100 / 104 40% 1 25.03.2027 -
Július Szӧke AEL Active 108 / 111 40% 1 23.03.2027 -
Darko Todorović Fakel Active 105 / 106 40% 1 23.03.2027 -
Iker Pozo Rodina Active 109 / 114 40% 1 11.03.2027 -
Nikita Krivtsov Krasnodar Active 142 / 139 40% 2 10.03.2027 -
Dardan Shabanhaxhaj Rubin Active 106 / 121 40% 1 06.03.2027 -
Mamadou Sylla Al-Riyadh Active 111 / 130 40% 1 24.02.2027 -
Tamerlan Musaev CSKA Moscow Active 106 / 123 40% 1 18.02.2027 -
Denzel Jubitana Neftchi Active 121 / 119 40% 1 14.02.2027 -
Moussa Koné Al-Ra'ed Active 107 / 111 40% 1 25.01.2027 -
François Kamano Sochi Active 104 / 117 40% 1 13.01.2027 -
Khalid Al-Ghannam Al-Ettifaq Active 125 / 108 40% 2 29.12.2026 -
Luiz Araújo Flamengo Active 133 / 138 40% 1 27.12.2026 -
Ivan Oblyakov CSKA Moscow Active 128 / 135 40% 1 27.12.2026 -
Konstantin Kuchaev Rostov Active 101 / 126 40% 2 26.12.2026 -
Matheus Silva Qarabag Active 119 / 117 40% 4 24.12.2026 -
Carel Eiting Omonoia Active 111 / 114 40% 4 23.12.2026 -
Pedro Bicalho Qarabag Active 118 / 130 40% 2 20.12.2026 -
Kady Borges Qarabag Active 128 / 130 40% 1 11.12.2026 -
Nahuel Arias San Lorenzo Active 113 / 123 40% 1 09.12.2026 -
Eldar Ćivić Baltika Active 109 / 124 40% 3 07.12.2026 -
Denis Makarov Krylya Sovetov Active 128 / 125 40% 3 05.12.2026 -
Óscar Al-Diriyah Active 117 / 124 40% 3 04.12.2026 -
Maxim Radchenko Rostov Active 68 / 84 40% 1 03.12.2026 -
Cheveyo Tsawa Club Brugge Active 107 / 120 40% 1 03.12.2026 -
Joe Rothwell Sheffield United Active 114 / 129 40% 3 01.12.2026 -
Marko Janković Qarabag Active 122 / 121 40% 2 28.11.2026 -
Douglas Augusto Krasnodar Active 135 / 137 40% 3 24.11.2026 -
Nejc Brekalo NK Domzale Active 110 / 96 40% 1 24.11.2026 -
Mariano Bracamonte Deportivo Riestra Active 136 / 113 40% 2 21.11.2026 -
Ivan Oleinikov Krylya Sovetov Active 107 / 123 40% 2 21.11.2026 -
Ilja Vakhania Krasnodar Active 112 / 112 40% 2 19.11.2026 -
Aschraf El Mahdioui Al-Taawoun Active 141 / 129 40% 1 19.11.2026 -
Kein Sato FC Tokyo Active 124 / 138 40% 3 17.11.2026 -
Veldin Hodža Rubin Active 104 / 127 40% 2 15.11.2026 -
Lechi Sadulaev Akhmat Grozny Active 109 / 121 40% 1 10.11.2026 -
Henrik Bjørdal Viking Active 135 / 124 40% 5 09.11.2026 -
Matthias Seidl Rapid Wien Active 131 / 129 40% 1 07.11.2026 -
Pêpê Pafos Active 118 / 123 40% 1 05.11.2026 -
Lucas Souto Defensa y Justicia Active 121 / 118 40% 3 26.10.2026 -
Andrei Cordea CFR Cluj Active 136 / 110 40% 1 24.10.2026 -
Lucas Vera Lokomotiv Moscow Active 103 / 117 40% 1 22.10.2026 -
Franco Cristaldo Talleres Active 123 / 117 40% 2 15.10.2026 -
Rafael Santos Borré River Plate Active 120 / 120 40% 1 11.10.2026 -
Kevin Pina Krasnodar Active 137 / 117 40% 1 10.10.2026 -
Sebastian Mailat Botosani Active 102 / 124 40% 2 04.10.2026 -
Luis Chávez Dinamo Moscow Active 150 / 129 40% 1 03.10.2026 -
Alexis Steimbach Gimnasia La Plata Active 101 / 118 40% 1 29.09.2026 -
Matías Pellegrini Vélez Active 112 / 114 40% 1 21.09.2026 -
Elvin Cəfərquliyev Qarabag Active 117 / 116 40% 2 10.09.2026 -
Tomás Galván River Plate Active 126 / 117 40% 2 06.09.2026 -
Yan Eteki Noah Active 122 / 120 40% 1 06.09.2026 -
Jaïro Riedewald Sheffield United Active 128 / 118 40% 1 04.09.2026 -
Bendegúz Bolla Rapid Wien Active 124 / 130 40% 1 01.09.2026 -
Salvatore Elia Cremonese Active 123 / 125 40% 1 01.09.2026 -
Gady Beyuku Blackburn Rovers Active 115 / 121 40% 1 01.09.2026 -
Bade Aluko Leicester City Active 115 / 113 40% 1 01.09.2026 -
Joaquín Silva Santiago Wanderers Active 74 / 84 40% 1 10.08.2026 -
Florentino Luís Ipswich Town Active 142 / 143 40% 1 01.08.2026 -